sensor_id;sensor_type;location;lat;lon;timestamp;temperature;humidity
43151;DHT22;28755;51.478;5.702;2023-11-21T00:00:16;8.20;99.90
43151;DHT22;28755;51.478;5.702;2023-11-21T00:02:43;8.20;99.90
43151;DHT22;28755;51.478;5.702;2023-11-21T00:05:10;8.20;99.90
43151;DHT22;28755;51.478;5.702;2023-11-21T00:07:37;8.30;99.90
43151;DHT22;28755;51.478;5.702;2023-11-21T00:10:03;8.20;99.90
43151;DHT22;28755;51.478;5.702;2023-11-21T00:12:30;8.20;99.90
43151;DHT22;28755;51.478;5.702;2023-11-21T00:14:57;8.30;99.90
43151;DHT22;28755;51.478;5.702;2023-11-21T00:17:23;8.30;99.90
43151;DHT22;28755;51.478;5.702;2023-11-21T00:19:48;8.30;99.90
43151;DHT22;28755;51.478;5.702;2023-11-21T00:22:14;8.30;99.90
43151;DHT22;28755;51.478;5.702;2023-11-21T00:24:41;8.30;99.90
43151;DHT22;28755;51.478;5.702;2023-11-21T00:27:07;8.30;99.90
43151;DHT22;28755;51.478;5.702;2023-11-21T00:29:32;8.20;99.90
43151;DHT22;28755;51.478;5.702;2023-11-21T00:31:58;8.20;99.90
43151;DHT22;28755;51.478;5.702;2023-11-21T00:34:23;8.20;99.90
43151;DHT22;28755;51.478;5.702;2023-11-21T00:36:49;8.20;99.90
43151;DHT22;28755;51.478;5.702;2023-11-21T00:39:15;8.20;99.90
43151;DHT22;28755;51.478;5.702;2023-11-21T00:41:41;8.20;99.90
43151;DHT22;28755;51.478;5.702;2023-11-21T00:44:07;8.20;99.90
43151;DHT22;28755;51.478;5.702;2023-11-21T00:46:33;8.20;99.90
43151;DHT22;28755;51.478;5.702;2023-11-21T00:48:58;8.20;99.90
43151;DHT22;28755;51.478;5.702;2023-11-21T00:51:24;8.20;99.90
43151;DHT22;28755;51.478;5.702;2023-11-21T00:53:50;8.30;99.90
43151;DHT22;28755;51.478;5.702;2023-11-21T00:56:16;8.20;99.90
43151;DHT22;28755;51.478;5.702;2023-11-21T00:58:41;8.20;99.90
43151;DHT22;28755;51.478;5.702;2023-11-21T01:01:15;8.10;99.90
43151;DHT22;28755;51.478;5.702;2023-11-21T01:03:40;8.10;99.90
43151;DHT22;28755;51.478;5.702;2023-11-21T01:06:06;8.10;99.90
43151;DHT22;28755;51.478;5.702;2023-11-21T01:08:32;8.00;99.90
43151;DHT22;28755;51.478;5.702;2023-11-21T01:10:58;8.00;99.90
43151;DHT22;28755;51.478;5.702;2023-11-21T01:13:23;7.90;99.90
43151;DHT22;28755;51.478;5.702;2023-11-21T01:15:55;8.00;99.90
43151;DHT22;28755;51.478;5.702;2023-11-21T01:18:21;8.00;99.90
43151;DHT22;28755;51.478;5.702;2023-11-21T01:20:46;8.00;99.90
43151;DHT22;28755;51.478;5.702;2023-11-21T01:23:13;7.90;99.90
43151;DHT22;28755;51.478;5.702;2023-11-21T01:25:38;7.90;99.90
43151;DHT22;28755;51.478;5.702;2023-11-21T01:28:04;7.90;99.90
43151;DHT22;28755;51.478;5.702;2023-11-21T01:30:30;7.90;99.90
43151;DHT22;28755;51.478;5.702;2023-11-21T01:32:55;7.90;99.90
43151;DHT22;28755;51.478;5.702;2023-11-21T01:35:22;7.90;99.90
43151;DHT22;28755;51.478;5.702;2023-11-21T01:37:47;7.90;99.90
43151;DHT22;28755;51.478;5.702;2023-11-21T01:40:13;8.00;99.90
43151;DHT22;28755;51.478;5.702;2023-11-21T01:42:40;8.00;99.90
43151;DHT22;28755;51.478;5.702;2023-11-21T01:45:06;7.90;99.90
43151;DHT22;28755;51.478;5.702;2023-11-21T01:47:33;7.90;99.90
43151;DHT22;28755;51.478;5.702;2023-11-21T01:49:59;8.00;99.90
43151;DHT22;28755;51.478;5.702;2023-11-21T01:52:26;8.00;99.90
43151;DHT22;28755;51.478;5.702;2023-11-21T01:54:52;8.00;99.90
43151;DHT22;28755;51.478;5.702;2023-11-21T01:57:19;7.90;99.90
43151;DHT22;28755;51.478;5.702;2023-11-21T01:59:47;8.00;99.90
43151;DHT22;28755;51.478;5.702;2023-11-21T02:02:14;7.90;99.90
43151;DHT22;28755;51.478;5.702;2023-11-21T02:04:41;7.90;99.90
43151;DHT22;28755;51.478;5.702;2023-11-21T02:07:07;7.90;99.90
43151;DHT22;28755;51.478;5.702;2023-11-21T02:09:33;7.90;99.90
43151;DHT22;28755;51.478;5.702;2023-11-21T02:12:00;7.90;99.90
43151;DHT22;28755;51.478;5.702;2023-11-21T02:14:26;7.90;99.90
43151;DHT22;28755;51.478;5.702;2023-11-21T02:16:53;7.90;99.90
43151;DHT22;28755;51.478;5.702;2023-11-21T02:19:20;7.90;99.90
43151;DHT22;28755;51.478;5.702;2023-11-21T02:21:52;7.90;99.90
43151;DHT22;28755;51.478;5.702;2023-11-21T02:24:20;7.90;99.90
43151;DHT22;28755;51.478;5.702;2023-11-21T02:26:47;8.00;99.90
43151;DHT22;28755;51.478;5.702;2023-11-21T02:29:13;8.00;99.90
43151;DHT22;28755;51.478;5.702;2023-11-21T02:31:39;8.00;99.90
43151;DHT22;28755;51.478;5.702;2023-11-21T02:34:14;7.90;99.90
43151;DHT22;28755;51.478;5.702;2023-11-21T02:36:40;8.00;99.90
43151;DHT22;28755;51.478;5.702;2023-11-21T02:39:05;8.00;99.90
43151;DHT22;28755;51.478;5.702;2023-11-21T02:41:32;7.90;99.90
43151;DHT22;28755;51.478;5.702;2023-11-21T02:44:00;8.00;99.90
43151;DHT22;28755;51.478;5.702;2023-11-21T02:46:25;7.90;99.90
43151;DHT22;28755;51.478;5.702;2023-11-21T02:48:51;7.80;99.90
43151;DHT22;28755;51.478;5.702;2023-11-21T02:51:19;8.00;99.90
43151;DHT22;28755;51.478;5.702;2023-11-21T02:53:44;7.90;99.90
43151;DHT22;28755;51.478;5.702;2023-11-21T02:56:12;7.90;99.90
43151;DHT22;28755;51.478;5.702;2023-11-21T02:58:41;7.80;99.90
43151;DHT22;28755;51.478;5.702;2023-11-21T03:01:07;7.80;99.90
43151;DHT22;28755;51.478;5.702;2023-11-21T03:03:33;7.80;99.90
43151;DHT22;28755;51.478;5.702;2023-11-21T03:05:59;7.80;99.90
43151;DHT22;28755;51.478;5.702;2023-11-21T03:08:24;7.80;99.90
43151;DHT22;28755;51.478;5.702;2023-11-21T03:10:50;7.70;99.90
43151;DHT22;28755;51.478;5.702;2023-11-21T03:13:16;7.60;99.90
43151;DHT22;28755;51.478;5.702;2023-11-21T03:15:41;7.70;99.90
43151;DHT22;28755;51.478;5.702;2023-11-21T03:18:08;7.60;99.90
43151;DHT22;28755;51.478;5.702;2023-11-21T03:20:33;7.70;99.90
43151;DHT22;28755;51.478;5.702;2023-11-21T03:23:00;7.60;99.90
43151;DHT22;28755;51.478;5.702;2023-11-21T03:25:26;7.60;99.90
43151;DHT22;28755;51.478;5.702;2023-11-21T03:27:51;7.60;99.90
43151;DHT22;28755;51.478;5.702;2023-11-21T03:30:17;7.70;99.90
43151;DHT22;28755;51.478;5.702;2023-11-21T03:32:43;7.70;99.90
43151;DHT22;28755;51.478;5.702;2023-11-21T03:35:08;7.80;99.90
43151;DHT22;28755;51.478;5.702;2023-11-21T03:37:34;7.70;99.90
43151;DHT22;28755;51.478;5.702;2023-11-21T03:40:00;7.70;99.90
43151;DHT22;28755;51.478;5.702;2023-11-21T03:42:25;7.70;99.90
43151;DHT22;28755;51.478;5.702;2023-11-21T03:44:52;7.60;99.90
43151;DHT22;28755;51.478;5.702;2023-11-21T03:47:18;7.60;99.90
43151;DHT22;28755;51.478;5.702;2023-11-21T03:49:44;7.60;99.90
43151;DHT22;28755;51.478;5.702;2023-11-21T03:52:11;7.50;99.90
43151;DHT22;28755;51.478;5.702;2023-11-21T03:54:37;7.50;99.90
43151;DHT22;28755;51.478;5.702;2023-11-21T03:57:03;7.50;99.90
43151;DHT22;28755;51.478;5.702;2023-11-21T03:59:29;7.50;99.90
43151;DHT22;28755;51.478;5.702;2023-11-21T04:01:57;7.60;99.90
43151;DHT22;28755;51.478;5.702;2023-11-21T04:04:23;7.50;99.90
43151;DHT22;28755;51.478;5.702;2023-11-21T04:06:49;7.50;99.90
43151;DHT22;28755;51.478;5.702;2023-11-21T04:09:14;7.40;99.90
43151;DHT22;28755;51.478;5.702;2023-11-21T04:11:40;7.40;99.90
43151;DHT22;28755;51.478;5.702;2023-11-21T04:14:05;7.40;99.90
43151;DHT22;28755;51.478;5.702;2023-11-21T04:16:31;7.50;99.90
43151;DHT22;28755;51.478;5.702;2023-11-21T04:18:57;7.50;99.90
43151;DHT22;28755;51.478;5.702;2023-11-21T04:21:22;7.50;99.90
43151;DHT22;28755;51.478;5.702;2023-11-21T04:23:49;7.40;99.90
43151;DHT22;28755;51.478;5.702;2023-11-21T04:26:15;7.40;99.90
43151;DHT22;28755;51.478;5.702;2023-11-21T04:28:40;7.40;99.90
43151;DHT22;28755;51.478;5.702;2023-11-21T04:31:06;7.50;99.90
43151;DHT22;28755;51.478;5.702;2023-11-21T04:33:32;7.50;99.90
43151;DHT22;28755;51.478;5.702;2023-11-21T04:35:58;7.60;99.90
43151;DHT22;28755;51.478;5.702;2023-11-21T04:38:23;7.60;99.90
43151;DHT22;28755;51.478;5.702;2023-11-21T04:40:49;7.50;99.90
43151;DHT22;28755;51.478;5.702;2023-11-21T04:43:14;7.40;99.90
43151;DHT22;28755;51.478;5.702;2023-11-21T04:45:40;7.50;99.90
43151;DHT22;28755;51.478;5.702;2023-11-21T04:48:07;7.50;99.90
43151;DHT22;28755;51.478;5.702;2023-11-21T04:50:34;7.50;99.90
43151;DHT22;28755;51.478;5.702;2023-11-21T04:52:59;7.50;99.90
43151;DHT22;28755;51.478;5.702;2023-11-21T04:55:25;7.40;99.90
43151;DHT22;28755;51.478;5.702;2023-11-21T04:57:53;7.40;99.90
43151;DHT22;28755;51.478;5.702;2023-11-21T05:00:19;7.30;99.90
43151;DHT22;28755;51.478;5.702;2023-11-21T05:02:47;7.20;99.90
43151;DHT22;28755;51.478;5.702;2023-11-21T05:05:12;7.40;99.90
43151;DHT22;28755;51.478;5.702;2023-11-21T05:07:39;7.40;99.90
43151;DHT22;28755;51.478;5.702;2023-11-21T05:10:08;7.40;99.90
43151;DHT22;28755;51.478;5.702;2023-11-21T05:12:37;7.30;99.90
43151;DHT22;28755;51.478;5.702;2023-11-21T05:15:04;7.40;99.90
43151;DHT22;28755;51.478;5.702;2023-11-21T05:17:37;7.40;99.90
43151;DHT22;28755;51.478;5.702;2023-11-21T05:20:05;7.30;99.90
43151;DHT22;28755;51.478;5.702;2023-11-21T05:22:34;7.30;99.90
43151;DHT22;28755;51.478;5.702;2023-11-21T05:25:00;7.30;99.90
43151;DHT22;28755;51.478;5.702;2023-11-21T05:27:26;7.30;99.90
43151;DHT22;28755;51.478;5.702;2023-11-21T05:29:51;7.30;99.90
43151;DHT22;28755;51.478;5.702;2023-11-21T05:32:17;7.40;99.90
43151;DHT22;28755;51.478;5.702;2023-11-21T05:34:43;7.40;99.90
43151;DHT22;28755;51.478;5.702;2023-11-21T05:37:08;7.40;99.90
43151;DHT22;28755;51.478;5.702;2023-11-21T05:39:34;7.40;99.90
43151;DHT22;28755;51.478;5.702;2023-11-21T05:42:01;7.40;99.90
43151;DHT22;28755;51.478;5.702;2023-11-21T05:44:26;7.40;99.90
43151;DHT22;28755;51.478;5.702;2023-11-21T05:46:52;7.40;99.90
43151;DHT22;28755;51.478;5.702;2023-11-21T05:49:18;7.40;99.90
43151;DHT22;28755;51.478;5.702;2023-11-21T05:51:47;7.50;99.90
43151;DHT22;28755;51.478;5.702;2023-11-21T05:54:13;7.50;99.90
43151;DHT22;28755;51.478;5.702;2023-11-21T05:56:38;7.60;99.90
43151;DHT22;28755;51.478;5.702;2023-11-21T05:59:04;7.60;99.90
43151;DHT22;28755;51.478;5.702;2023-11-21T06:01:29;7.60;99.90
43151;DHT22;28755;51.478;5.702;2023-11-21T06:03:55;7.50;99.90
43151;DHT22;28755;51.478;5.702;2023-11-21T06:06:21;7.40;99.90
43151;DHT22;28755;51.478;5.702;2023-11-21T06:08:48;7.30;99.90
43151;DHT22;28755;51.478;5.702;2023-11-21T06:11:14;7.30;99.90
43151;DHT22;28755;51.478;5.702;2023-11-21T06:13:41;7.40;99.90
43151;DHT22;28755;51.478;5.702;2023-11-21T06:16:07;7.40;99.90
43151;DHT22;28755;51.478;5.702;2023-11-21T06:18:33;7.40;99.90
43151;DHT22;28755;51.478;5.702;2023-11-21T06:20:58;7.40;99.90
43151;DHT22;28755;51.478;5.702;2023-11-21T06:23:26;7.40;99.90
43151;DHT22;28755;51.478;5.702;2023-11-21T06:25:51;7.40;99.90
43151;DHT22;28755;51.478;5.702;2023-11-21T06:28:18;7.50;99.90
43151;DHT22;28755;51.478;5.702;2023-11-21T06:30:44;7.40;99.90
43151;DHT22;28755;51.478;5.702;2023-11-21T06:33:10;7.40;99.90
43151;DHT22;28755;51.478;5.702;2023-11-21T06:35:36;7.40;99.90
43151;DHT22;28755;51.478;5.702;2023-11-21T06:38:02;7.40;99.90
43151;DHT22;28755;51.478;5.702;2023-11-21T06:40:28;7.40;99.90
43151;DHT22;28755;51.478;5.702;2023-11-21T06:42:54;7.50;99.90
43151;DHT22;28755;51.478;5.702;2023-11-21T06:45:19;7.60;99.90
43151;DHT22;28755;51.478;5.702;2023-11-21T06:47:45;7.50;99.90
43151;DHT22;28755;51.478;5.702;2023-11-21T06:50:11;7.50;99.90
43151;DHT22;28755;51.478;5.702;2023-11-21T06:52:37;7.60;99.90
43151;DHT22;28755;51.478;5.702;2023-11-21T06:55:02;7.60;99.90
43151;DHT22;28755;51.478;5.702;2023-11-21T06:57:28;7.60;99.90
43151;DHT22;28755;51.478;5.702;2023-11-21T06:59:54;7.60;99.90
43151;DHT22;28755;51.478;5.702;2023-11-21T07:02:19;7.70;99.90
43151;DHT22;28755;51.478;5.702;2023-11-21T07:04:45;7.60;99.90
43151;DHT22;28755;51.478;5.702;2023-11-21T07:07:11;7.70;99.90
43151;DHT22;28755;51.478;5.702;2023-11-21T07:09:37;7.70;99.90
43151;DHT22;28755;51.478;5.702;2023-11-21T07:12:03;7.60;99.90
43151;DHT22;28755;51.478;5.702;2023-11-21T07:14:31;7.70;99.90
43151;DHT22;28755;51.478;5.702;2023-11-21T07:16:57;7.70;99.90
43151;DHT22;28755;51.478;5.702;2023-11-21T07:19:23;7.70;99.90
43151;DHT22;28755;51.478;5.702;2023-11-21T07:21:49;7.80;99.90
43151;DHT22;28755;51.478;5.702;2023-11-21T07:24:17;7.80;99.90
43151;DHT22;28755;51.478;5.702;2023-11-21T07:26:43;7.80;99.90
43151;DHT22;28755;51.478;5.702;2023-11-21T07:29:09;7.80;99.90
43151;DHT22;28755;51.478;5.702;2023-11-21T07:31:34;7.80;99.90
43151;DHT22;28755;51.478;5.702;2023-11-21T07:34:00;7.80;99.90
43151;DHT22;28755;51.478;5.702;2023-11-21T07:36:26;7.90;99.90
43151;DHT22;28755;51.478;5.702;2023-11-21T07:38:52;7.90;99.90
43151;DHT22;28755;51.478;5.702;2023-11-21T07:41:18;8.00;99.90
43151;DHT22;28755;51.478;5.702;2023-11-21T07:43:44;8.00;99.90
43151;DHT22;28755;51.478;5.702;2023-11-21T07:46:11;8.00;99.90
43151;DHT22;28755;51.478;5.702;2023-11-21T07:48:38;8.00;99.90
43151;DHT22;28755;51.478;5.702;2023-11-21T07:51:04;7.90;99.90
43151;DHT22;28755;51.478;5.702;2023-11-21T07:53:30;7.90;99.90
43151;DHT22;28755;51.478;5.702;2023-11-21T07:55:57;8.10;99.90
43151;DHT22;28755;51.478;5.702;2023-11-21T07:58:22;8.00;99.90
43151;DHT22;28755;51.478;5.702;2023-11-21T08:00:49;8.00;99.90
43151;DHT22;28755;51.478;5.702;2023-11-21T08:03:15;8.10;99.90
43151;DHT22;28755;51.478;5.702;2023-11-21T08:05:41;8.10;99.90
43151;DHT22;28755;51.478;5.702;2023-11-21T08:08:07;8.10;99.90
43151;DHT22;28755;51.478;5.702;2023-11-21T08:10:33;8.10;99.90
43151;DHT22;28755;51.478;5.702;2023-11-21T08:12:59;8.10;99.90
43151;DHT22;28755;51.478;5.702;2023-11-21T08:15:24;8.20;99.90
43151;DHT22;28755;51.478;5.702;2023-11-21T08:17:50;8.20;99.90
43151;DHT22;28755;51.478;5.702;2023-11-21T08:20:16;8.30;99.90
43151;DHT22;28755;51.478;5.702;2023-11-21T08:22:43;8.20;99.90
43151;DHT22;28755;51.478;5.702;2023-11-21T08:25:09;8.20;99.90
43151;DHT22;28755;51.478;5.702;2023-11-21T08:27:35;8.40;99.90
43151;DHT22;28755;51.478;5.702;2023-11-21T08:30:04;8.20;99.90
43151;DHT22;28755;51.478;5.702;2023-11-21T08:32:30;8.30;99.90
43151;DHT22;28755;51.478;5.702;2023-11-21T08:34:57;8.30;99.90
43151;DHT22;28755;51.478;5.702;2023-11-21T08:37:23;8.40;99.90
43151;DHT22;28755;51.478;5.702;2023-11-21T08:39:49;8.40;99.90
43151;DHT22;28755;51.478;5.702;2023-11-21T08:42:15;8.40;99.90
43151;DHT22;28755;51.478;5.702;2023-11-21T08:44:40;8.40;99.90
43151;DHT22;28755;51.478;5.702;2023-11-21T08:47:07;8.40;99.90
43151;DHT22;28755;51.478;5.702;2023-11-21T08:49:33;8.40;99.90
43151;DHT22;28755;51.478;5.702;2023-11-21T08:51:58;8.40;99.90
43151;DHT22;28755;51.478;5.702;2023-11-21T08:54:25;8.40;99.90
43151;DHT22;28755;51.478;5.702;2023-11-21T08:56:54;8.50;99.90
43151;DHT22;28755;51.478;5.702;2023-11-21T08:59:21;8.50;99.90
43151;DHT22;28755;51.478;5.702;2023-11-21T09:01:47;8.50;99.90
43151;DHT22;28755;51.478;5.702;2023-11-21T09:04:12;8.50;99.90
43151;DHT22;28755;51.478;5.702;2023-11-21T09:06:39;8.60;99.90
43151;DHT22;28755;51.478;5.702;2023-11-21T09:09:05;8.60;99.90
43151;DHT22;28755;51.478;5.702;2023-11-21T09:11:32;8.70;99.90
43151;DHT22;28755;51.478;5.702;2023-11-21T09:13:59;8.70;99.90
43151;DHT22;28755;51.478;5.702;2023-11-21T09:16:25;8.80;99.90
43151;DHT22;28755;51.478;5.702;2023-11-21T09:18:51;8.80;99.90
43151;DHT22;28755;51.478;5.702;2023-11-21T09:21:17;8.80;99.90
43151;DHT22;28755;51.478;5.702;2023-11-21T09:23:45;8.80;99.90
43151;DHT22;28755;51.478;5.702;2023-11-21T09:26:11;8.80;99.90
43151;DHT22;28755;51.478;5.702;2023-11-21T09:28:37;8.90;99.90
43151;DHT22;28755;51.478;5.702;2023-11-21T09:31:08;8.90;99.90
43151;DHT22;28755;51.478;5.702;2023-11-21T09:33:34;8.90;99.90
43151;DHT22;28755;51.478;5.702;2023-11-21T09:36:00;8.90;99.90
43151;DHT22;28755;51.478;5.702;2023-11-21T09:38:26;9.00;99.90
43151;DHT22;28755;51.478;5.702;2023-11-21T09:40:54;9.10;99.90
43151;DHT22;28755;51.478;5.702;2023-11-21T09:43:20;8.90;99.90
43151;DHT22;28755;51.478;5.702;2023-11-21T09:45:51;9.00;99.90
43151;DHT22;28755;51.478;5.702;2023-11-21T09:48:20;9.10;99.90
43151;DHT22;28755;51.478;5.702;2023-11-21T09:50:47;9.10;99.90
43151;DHT22;28755;51.478;5.702;2023-11-21T09:55:42;9.20;99.90
43151;DHT22;28755;51.478;5.702;2023-11-21T09:58:09;9.20;99.90
43151;DHT22;28755;51.478;5.702;2023-11-21T10:00:44;9.30;99.90
43151;DHT22;28755;51.478;5.702;2023-11-21T10:03:10;9.30;99.90
43151;DHT22;28755;51.478;5.702;2023-11-21T10:05:37;9.50;99.90
43151;DHT22;28755;51.478;5.702;2023-11-21T10:08:10;9.70;99.90
43151;DHT22;28755;51.478;5.702;2023-11-21T10:10:37;9.60;99.90
43151;DHT22;28755;51.478;5.702;2023-11-21T10:13:05;9.70;99.90
43151;DHT22;28755;51.478;5.702;2023-11-21T10:15:33;9.70;99.90
43151;DHT22;28755;51.478;5.702;2023-11-21T10:18:05;9.80;99.90
43151;DHT22;28755;51.478;5.702;2023-11-21T10:20:34;9.80;99.90
43151;DHT22;28755;51.478;5.702;2023-11-21T10:23:00;9.90;99.90
43151;DHT22;28755;51.478;5.702;2023-11-21T10:25:30;9.90;99.90
43151;DHT22;28755;51.478;5.702;2023-11-21T10:28:01;9.90;99.90
43151;DHT22;28755;51.478;5.702;2023-11-21T10:30:37;9.90;99.90
43151;DHT22;28755;51.478;5.702;2023-11-21T10:33:04;10.00;99.90
43151;DHT22;28755;51.478;5.702;2023-11-21T10:35:42;10.00;99.90
43151;DHT22;28755;51.478;5.702;2023-11-21T10:38:08;10.10;99.90
43151;DHT22;28755;51.478;5.702;2023-11-21T10:40:43;10.10;99.90
43151;DHT22;28755;51.478;5.702;2023-11-21T10:43:12;10.20;99.90
43151;DHT22;28755;51.478;5.702;2023-11-21T10:45:41;10.20;99.90
43151;DHT22;28755;51.478;5.702;2023-11-21T10:48:09;10.10;99.90
43151;DHT22;28755;51.478;5.702;2023-11-21T10:50:36;10.20;99.90
43151;DHT22;28755;51.478;5.702;2023-11-21T10:53:05;10.20;99.90
43151;DHT22;28755;51.478;5.702;2023-11-21T10:55:32;10.10;99.90
43151;DHT22;28755;51.478;5.702;2023-11-21T10:58:02;10.20;99.90
43151;DHT22;28755;51.478;5.702;2023-11-21T11:00:30;10.20;99.90
43151;DHT22;28755;51.478;5.702;2023-11-21T11:02:56;10.30;99.90
43151;DHT22;28755;51.478;5.702;2023-11-21T11:05:28;10.40;99.90
43151;DHT22;28755;51.478;5.702;2023-11-21T11:08:11;10.30;99.90
43151;DHT22;28755;51.478;5.702;2023-11-21T11:10:37;10.40;99.90
43151;DHT22;28755;51.478;5.702;2023-11-21T11:13:04;10.40;99.90
43151;DHT22;28755;51.478;5.702;2023-11-21T11:15:32;10.50;99.90
43151;DHT22;28755;51.478;5.702;2023-11-21T11:17:59;10.50;99.90
43151;DHT22;28755;51.478;5.702;2023-11-21T11:20:31;10.40;99.90
43151;DHT22;28755;51.478;5.702;2023-11-21T11:28:08;10.50;99.90
43151;DHT22;28755;51.478;5.702;2023-11-21T11:30:46;10.50;99.90
43151;DHT22;28755;51.478;5.702;2023-11-21T11:36:06;10.60;99.90
43151;DHT22;28755;51.478;5.702;2023-11-21T11:38:33;10.60;99.90
43151;DHT22;28755;51.478;5.702;2023-11-21T11:41:05;10.50;99.90
43151;DHT22;28755;51.478;5.702;2023-11-21T11:43:31;10.50;99.90
43151;DHT22;28755;51.478;5.702;2023-11-21T11:46:10;10.50;99.90
43151;DHT22;28755;51.478;5.702;2023-11-21T11:48:39;10.50;99.90
43151;DHT22;28755;51.478;5.702;2023-11-21T11:51:09;10.50;99.90
43151;DHT22;28755;51.478;5.702;2023-11-21T11:53:46;10.50;99.90
43151;DHT22;28755;51.478;5.702;2023-11-21T11:56:28;10.40;99.90
43151;DHT22;28755;51.478;5.702;2023-11-21T11:58:58;10.50;99.90
43151;DHT22;28755;51.478;5.702;2023-11-21T12:01:26;10.50;99.90
43151;DHT22;28755;51.478;5.702;2023-11-21T12:06:36;10.70;99.90
43151;DHT22;28755;51.478;5.702;2023-11-21T12:09:02;10.70;99.90
43151;DHT22;28755;51.478;5.702;2023-11-21T12:11:32;10.80;99.90
43151;DHT22;28755;51.478;5.702;2023-11-21T12:14:01;10.80;99.90
43151;DHT22;28755;51.478;5.702;2023-11-21T12:16:27;10.80;99.90
43151;DHT22;28755;51.478;5.702;2023-11-21T12:18:53;10.80;99.90
43151;DHT22;28755;51.478;5.702;2023-11-21T12:21:20;10.70;99.90
43151;DHT22;28755;51.478;5.702;2023-11-21T12:23:46;10.70;99.90
43151;DHT22;28755;51.478;5.702;2023-11-21T12:26:13;10.70;99.90
43151;DHT22;28755;51.478;5.702;2023-11-21T12:28:39;10.70;99.90
43151;DHT22;28755;51.478;5.702;2023-11-21T12:31:05;10.70;99.90
43151;DHT22;28755;51.478;5.702;2023-11-21T12:33:35;10.60;99.90
43151;DHT22;28755;51.478;5.702;2023-11-21T12:36:00;10.50;99.90
43151;DHT22;28755;51.478;5.702;2023-11-21T12:38:34;10.50;99.90
43151;DHT22;28755;51.478;5.702;2023-11-21T12:41:00;10.50;99.90
43151;DHT22;28755;51.478;5.702;2023-11-21T12:43:26;10.50;99.90
43151;DHT22;28755;51.478;5.702;2023-11-21T12:46:05;10.50;99.90
43151;DHT22;28755;51.478;5.702;2023-11-21T12:48:32;10.50;99.90
43151;DHT22;28755;51.478;5.702;2023-11-21T12:50:57;10.60;99.90
43151;DHT22;28755;51.478;5.702;2023-11-21T12:53:26;10.60;99.90
43151;DHT22;28755;51.478;5.702;2023-11-21T12:55:51;10.60;99.90
43151;DHT22;28755;51.478;5.702;2023-11-21T12:58:22;10.70;99.90
43151;DHT22;28755;51.478;5.702;2023-11-21T13:00:49;10.70;99.90
43151;DHT22;28755;51.478;5.702;2023-11-21T13:03:16;10.60;99.90
43151;DHT22;28755;51.478;5.702;2023-11-21T13:05:44;10.60;99.90
43151;DHT22;28755;51.478;5.702;2023-11-21T13:08:12;10.80;99.90
43151;DHT22;28755;51.478;5.702;2023-11-21T13:10:40;10.70;99.90
43151;DHT22;28755;51.478;5.702;2023-11-21T13:13:09;10.70;99.90
43151;DHT22;28755;51.478;5.702;2023-11-21T13:15:39;10.70;99.90
43151;DHT22;28755;51.478;5.702;2023-11-21T13:18:06;10.70;99.90
43151;DHT22;28755;51.478;5.702;2023-11-21T13:20:32;10.80;99.90
43151;DHT22;28755;51.478;5.702;2023-11-21T13:22:58;10.80;99.90
43151;DHT22;28755;51.478;5.702;2023-11-21T13:25:25;10.80;99.90
43151;DHT22;28755;51.478;5.702;2023-11-21T13:27:57;10.80;99.90
43151;DHT22;28755;51.478;5.702;2023-11-21T13:30:24;10.90;99.90
43151;DHT22;28755;51.478;5.702;2023-11-21T13:32:59;10.90;99.90
43151;DHT22;28755;51.478;5.702;2023-11-21T13:35:30;10.90;99.90
43151;DHT22;28755;51.478;5.702;2023-11-21T13:38:04;10.80;99.90
43151;DHT22;28755;51.478;5.702;2023-11-21T13:40:31;10.90;99.90
43151;DHT22;28755;51.478;5.702;2023-11-21T13:43:00;10.80;99.90
43151;DHT22;28755;51.478;5.702;2023-11-21T13:45:29;10.80;99.90
43151;DHT22;28755;51.478;5.702;2023-11-21T13:47:56;10.80;99.90
43151;DHT22;28755;51.478;5.702;2023-11-21T13:50:28;10.80;99.90
43151;DHT22;28755;51.478;5.702;2023-11-21T13:52:59;10.80;99.90
43151;DHT22;28755;51.478;5.702;2023-11-21T13:55:36;10.70;99.90
43151;DHT22;28755;51.478;5.702;2023-11-21T13:58:02;10.70;99.90
43151;DHT22;28755;51.478;5.702;2023-11-21T14:00:34;10.70;99.90
43151;DHT22;28755;51.478;5.702;2023-11-21T14:03:17;10.70;99.90
43151;DHT22;28755;51.478;5.702;2023-11-21T14:05:47;10.70;99.90
43151;DHT22;28755;51.478;5.702;2023-11-21T14:08:17;10.80;99.90
43151;DHT22;28755;51.478;5.702;2023-11-21T14:10:45;10.80;99.90
43151;DHT22;28755;51.478;5.702;2023-11-21T14:13:16;10.80;99.90
43151;DHT22;28755;51.478;5.702;2023-11-21T14:15:42;10.80;99.90
43151;DHT22;28755;51.478;5.702;2023-11-21T14:18:12;10.80;99.90
43151;DHT22;28755;51.478;5.702;2023-11-21T14:20:42;10.80;99.90
43151;DHT22;28755;51.478;5.702;2023-11-21T14:23:07;10.70;99.90
43151;DHT22;28755;51.478;5.702;2023-11-21T14:25:37;10.80;99.90
43151;DHT22;28755;51.478;5.702;2023-11-21T14:28:04;10.70;99.90
43151;DHT22;28755;51.478;5.702;2023-11-21T14:30:32;10.70;99.90
43151;DHT22;28755;51.478;5.702;2023-11-21T14:32:59;10.70;99.90
43151;DHT22;28755;51.478;5.702;2023-11-21T14:35:26;10.70;99.90
43151;DHT22;28755;51.478;5.702;2023-11-21T14:37:52;10.70;99.90
43151;DHT22;28755;51.478;5.702;2023-11-21T14:40:19;10.60;99.90
43151;DHT22;28755;51.478;5.702;2023-11-21T14:42:50;10.70;99.90
43151;DHT22;28755;51.478;5.702;2023-11-21T14:45:18;10.80;99.90
43151;DHT22;28755;51.478;5.702;2023-11-21T14:47:46;10.70;99.90
43151;DHT22;28755;51.478;5.702;2023-11-21T14:50:21;10.80;99.90
43151;DHT22;28755;51.478;5.702;2023-11-21T14:53:15;10.80;99.90
43151;DHT22;28755;51.478;5.702;2023-11-21T14:55:42;10.80;99.90
43151;DHT22;28755;51.478;5.702;2023-11-21T14:58:20;10.70;99.90
43151;DHT22;28755;51.478;5.702;2023-11-21T15:00:56;10.70;99.90
43151;DHT22;28755;51.478;5.702;2023-11-21T15:03:26;10.70;99.90
43151;DHT22;28755;51.478;5.702;2023-11-21T15:06:02;10.70;99.90
43151;DHT22;28755;51.478;5.702;2023-11-21T15:08:51;10.60;99.90
43151;DHT22;28755;51.478;5.702;2023-11-21T15:11:42;10.50;99.90
43151;DHT22;28755;51.478;5.702;2023-11-21T15:14:08;10.50;99.90
43151;DHT22;28755;51.478;5.702;2023-11-21T15:16:37;10.50;99.90
43151;DHT22;28755;51.478;5.702;2023-11-21T15:19:07;10.40;99.90
43151;DHT22;28755;51.478;5.702;2023-11-21T15:21:34;10.40;99.90
43151;DHT22;28755;51.478;5.702;2023-11-21T15:24:00;10.40;99.90
43151;DHT22;28755;51.478;5.702;2023-11-21T15:26:26;10.40;99.90
43151;DHT22;28755;51.478;5.702;2023-11-21T15:28:52;10.40;99.90
43151;DHT22;28755;51.478;5.702;2023-11-21T15:31:18;10.30;99.90
43151;DHT22;28755;51.478;5.702;2023-11-21T15:33:49;10.40;99.90
43151;DHT22;28755;51.478;5.702;2023-11-21T15:36:14;10.30;99.90
43151;DHT22;28755;51.478;5.702;2023-11-21T15:38:40;10.40;99.90
43151;DHT22;28755;51.478;5.702;2023-11-21T15:41:06;10.30;99.90
43151;DHT22;28755;51.478;5.702;2023-11-21T15:43:35;10.30;99.90
43151;DHT22;28755;51.478;5.702;2023-11-21T15:46:01;10.30;99.90
43151;DHT22;28755;51.478;5.702;2023-11-21T15:48:31;10.30;99.90
43151;DHT22;28755;51.478;5.702;2023-11-21T15:50:57;10.20;99.90
43151;DHT22;28755;51.478;5.702;2023-11-21T15:53:23;10.30;99.90